LavenderCAM.net
Leatherhead Weather
 
Leatherhead Weather
 
 





Aviation weather for

London Heathrow (EGLL) and London Gatwick (EGKK)



London Heathrow (EGLL) METAR / Surface Actual
London / Heathrow Airport, United Kingdom (EGLL) 51-29N 000-27W 0M
Apr 02, 2020 - 04:50 PM EDT / 2020.04.02 2050 UTC
Wind: from the W (270 degrees) at 10 MPH (9 KT):0
Visibility: greater than 7 mile(s):0
Temperature: 48 F (9 C)
Dew Point: 41 F (5 C)
Relative Humidity: 75%
Pressure (altimeter): 29.97 in. Hg (1015 hPa)
ob: EGLL 022050Z AUTO 27009KT 9999 NCD 09/05 Q1015 NOSIG
cycle: 21
London Heathrow (EGLL) TAF / Forecast
2020/04/02 18:16
TAF EGLL 021655Z 0218/0324 28010KT 9999 SCT040 
      BECMG 0318/0321 21004KT


London Gatwick (EGKK) METAR / Surface Actual
London / Gatwick Airport, United Kingdom (EGKK) 51-09N 000-11W 0M
Apr 02, 2020 - 04:50 PM EDT / 2020.04.02 2050 UTC
Wind: from the WSW (250 degrees) at 7 MPH (6 KT):0
Visibility: greater than 7 mile(s):0
Temperature: 46 F (8 C)
Dew Point: 41 F (5 C)
Relative Humidity: 81%
Pressure (altimeter): 29.97 in. Hg (1015 hPa)
ob: EGKK 022050Z 25006KT CAVOK 08/05 Q1015
cycle: 21
London Gatwick (EGKK) TAF / Forecast
2020/04/02 18:18
TAF EGKK 021700Z 0218/0324 27010KT 9999 SCT030 
      BECMG 0318/0321 20005KT PROB30 0322/0324 8000